Time;durP1;ratioP1;P1;durP2;ratioP2;P2;SDS_P1;SDS_P2;PMS_P1;PMS_P2;Temp;Humidity;BMP_temperature;BMP_pressure;BME280_temperature;BME280_humidity;BME280_pressure;Samples;Min_cycle;Max_cycle;Signal;HPM_P1;HPM_P2
2023/04/28 00:01:21;;;;;;;0.00;0.00;;;7.80;78.30;;;;;;4951617;29;20051;-62
2023/04/28 00:03:47;;;;;;;0.00;0.00;;;7.80;78.10;;;;;;4951160;29;20035;-63
2023/04/28 00:06:13;;;;;;;0.00;0.00;;;7.80;78.00;;;;;;4950327;28;20051;-63
2023/04/28 00:08:39;;;;;;;0.00;0.00;;;7.80;78.30;;;;;;4950922;29;20047;-62
2023/04/28 00:11:09;;;;;;;0.10;0.10;;;7.70;78.00;;;;;;4933988;29;20050;-63
2023/04/28 00:13:34;;;;;;;0.20;0.20;;;7.70;78.10;;;;;;4951159;29;20046;-63
2023/04/28 00:16:00;;;;;;;0.08;0.08;;;7.70;77.70;;;;;;4933618;29;20044;-63
2023/04/28 00:18:26;;;;;;;0.10;0.10;;;7.80;77.70;;;;;;4917358;29;20043;-63
2023/04/28 00:20:51;;;;;;;0.00;0.00;;;7.70;78.00;;;;;;4951629;29;20055;-63
2023/04/28 00:23:17;;;;;;;0.00;0.00;;;7.70;78.00;;;;;;4952270;29;20133;-63
2023/04/28 00:25:42;;;;;;;0.10;0.10;;;7.60;77.80;;;;;;4951700;29;20039;-63
2023/04/28 00:28:08;;;;;;;0.00;0.00;;;7.70;77.70;;;;;;4950648;29;20106;-63
2023/04/28 00:30:33;;;;;;;0.00;0.00;;;7.60;77.80;;;;;;4951900;29;20098;-63
2023/04/28 00:32:59;;;;;;;0.00;0.00;;;7.60;77.60;;;;;;4951997;29;20058;-63
2023/04/28 00:35:24;;;;;;;0.10;0.10;;;7.60;77.50;;;;;;4951940;29;20122;-63
2023/04/28 00:37:50;;;;;;;0.00;0.00;;;7.60;77.40;;;;;;4951477;29;20823;-63
2023/04/28 00:40:15;;;;;;;0.08;0.08;;;7.60;77.20;;;;;;4934637;29;20504;-62
2023/04/28 00:42:41;;;;;;;0.00;0.00;;;7.60;77.20;;;;;;4951860;29;20524;-63
2023/04/28 00:45:07;;;;;;;0.00;0.00;;;7.60;77.30;;;;;;4951252;29;20563;-63
2023/04/28 00:47:33;;;;;;;0.00;0.00;;;7.60;77.10;;;;;;4952220;28;20051;-63
2023/04/28 00:50:04;;;;;;;0.00;0.00;;;7.60;77.10;;;;;;4957686;29;20043;-63
2023/04/28 00:52:31;;;;;;;0.10;0.10;;;7.50;77.00;;;;;;4943906;29;20035;-63
2023/04/28 00:54:57;;;;;;;0.00;0.00;;;7.50;77.00;;;;;;4958127;29;20051;-63
2023/04/28 00:57:23;;;;;;;0.00;0.00;;;7.40;77.10;;;;;;4957879;28;20039;-63
2023/04/28 00:59:49;;;;;;;0.15;0.15;;;7.50;77.00;;;;;;4957625;29;20416;-63
2023/04/28 01:02:18;;;;;;;0.20;0.20;;;7.50;77.10;;;;;;4958067;28;20693;-62
2023/04/28 01:04:44;;;;;;;0.00;0.00;;;7.40;77.00;;;;;;4957530;28;20084;-62
2023/04/28 01:07:10;;;;;;;0.03;0.03;;;7.40;77.10;;;;;;4957878;28;20039;-62
2023/04/28 01:09:36;;;;;;;0.00;0.00;;;7.40;77.50;;;;;;4958261;28;20035;-63
2023/04/28 01:12:02;;;;;;;0.00;0.00;;;7.40;77.50;;;;;;4957273;28;20101;-63
2023/04/28 01:14:28;;;;;;;0.08;0.08;;;7.40;77.20;;;;;;4957271;29;20680;-63
2023/04/28 01:16:54;;;;;;;0.00;0.00;;;7.40;77.00;;;;;;4956599;29;20036;-63
2023/04/28 01:19:23;;;;;;;0.00;0.00;;;7.40;77.10;;;;;;4955857;28;20488;-63
2023/04/28 01:21:49;;;;;;;0.00;0.00;;;7.40;77.00;;;;;;4956602;29;20074;-63
2023/04/28 01:24:16;;;;;;;0.00;0.00;;;7.40;77.30;;;;;;4956910;29;20075;-62
2023/04/28 01:26:41;;;;;;;0.00;0.00;;;7.30;77.40;;;;;;4956379;29;20047;-63
2023/04/28 01:29:07;;;;;;;0.10;0.10;;;7.30;77.20;;;;;;4956686;29;20125;-62
2023/04/28 01:31:32;;;;;;;0.00;0.00;;;7.30;77.30;;;;;;4956811;28;20122;-62
2023/04/28 01:33:58;;;;;;;0.00;0.00;;;7.30;77.40;;;;;;4956687;28;20039;-63
2023/04/28 01:36:26;;;;;;;0.00;0.00;;;7.30;77.30;;;;;;4956423;28;20039;-63
2023/04/28 01:38:52;;;;;;;0.00;0.00;;;7.30;77.30;;;;;;4956649;29;20085;-63
2023/04/28 01:41:17;;;;;;;0.00;0.00;;;7.30;77.40;;;;;;4955102;29;21661;-63
2023/04/28 01:43:43;;;;;;;0.00;0.00;;;7.30;77.20;;;;;;4956608;28;20611;-63
2023/04/28 01:46:11;;;;;;;0.20;0.20;;;7.30;77.20;;;;;;4956127;29;20378;-63
2023/04/28 01:48:37;;;;;;;0.00;0.00;;;7.30;77.20;;;;;;4956797;28;20059;-63
2023/04/28 01:51:03;;;;;;;0.00;0.00;;;7.30;77.00;;;;;;4939344;29;20139;-63
2023/04/28 01:53:29;;;;;;;0.00;0.00;;;7.20;77.00;;;;;;4956576;28;20054;-63
2023/04/28 01:55:55;;;;;;;0.00;0.00;;;7.20;77.40;;;;;;4956673;29;20074;-63
2023/04/28 01:58:21;;;;;;;0.03;0.03;;;7.20;77.40;;;;;;4955918;29;20436;-63
2023/04/28 02:00:46;;;;;;;0.00;0.00;;;7.20;77.50;;;;;;4951248;28;20047;-63
2023/04/28 02:03:12;;;;;;;0.00;0.00;;;7.20;77.40;;;;;;4953447;29;20055;-62
2023/04/28 02:05:38;;;;;;;0.00;0.00;;;7.20;77.30;;;;;;4948316;29;20090;-63
2023/04/28 02:08:03;;;;;;;0.00;0.00;;;7.20;77.20;;;;;;4953508;29;20051;-63
2023/04/28 02:10:29;;;;;;;0.00;0.00;;;7.20;77.40;;;;;;4952896;29;20040;-63
2023/04/28 02:12:55;;;;;;;0.00;0.00;;;7.20;77.70;;;;;;4936180;29;20409;-63
2023/04/28 02:15:21;;;;;;;0.00;0.00;;;7.20;77.60;;;;;;4954216;29;20397;-62
2023/04/28 02:17:46;;;;;;;0.00;0.00;;;7.20;77.60;;;;;;4953393;29;20158;-63
2023/04/28 02:20:13;;;;;;;0.10;0.10;;;7.20;77.60;;;;;;4953325;29;20039;-62
2023/04/28 02:22:39;;;;;;;0.03;0.03;;;7.20;77.50;;;;;;4953007;29;20102;-63
2023/04/28 02:25:06;;;;;;;0.00;0.00;;;7.20;77.20;;;;;;4953497;29;20419;-63
2023/04/28 02:27:31;;;;;;;0.00;0.00;;;7.20;77.40;;;;;;4952701;29;20389;-63
2023/04/28 02:29:57;;;;;;;0.03;0.03;;;7.20;77.30;;;;;;4953069;29;20101;-63
2023/04/28 02:32:23;;;;;;;0.00;0.00;;;7.20;77.30;;;;;;4952514;29;20039;-63
2023/04/28 02:34:53;;;;;;;0.10;0.10;;;7.20;77.30;;;;;;4936084;29;20047;-63
2023/04/28 02:37:19;;;;;;;0.00;0.00;;;7.30;77.20;;;;;;4935865;29;20074;-63
2023/04/28 02:39:45;;;;;;;0.00;0.00;;;7.30;77.50;;;;;;4952843;29;20081;-64
2023/04/28 02:42:10;;;;;;;0.00;0.00;;;7.30;77.50;;;;;;4952654;29;20066;-63
2023/04/28 02:44:36;;;;;;;0.00;0.00;;;7.20;77.30;;;;;;4952967;29;20067;-63
2023/04/28 02:47:02;;;;;;;0.52;0.52;;;7.20;77.50;;;;;;4952436;29;20055;-63
2023/04/28 02:49:27;;;;;;;0.80;0.75;;;7.20;77.60;;;;;;4952853;29;20086;-63
2023/04/28 02:51:53;;;;;;;0.00;0.00;;;7.20;77.60;;;;;;4952138;29;20043;-63
2023/04/28 02:54:26;;;;;;;0.00;0.00;;;7.30;77.50;;;;;;4951374;28;20046;-63
2023/04/28 02:56:55;;;;;;;0.10;0.10;;;7.30;77.20;;;;;;4933863;29;20457;-62
2023/04/28 02:59:22;;;;;;;0.00;0.00;;;7.20;77.30;;;;;;4951272;28;20141;-63
2023/04/28 03:01:48;;;;;;;0.00;0.00;;;7.30;77.50;;;;;;4952601;29;20043;-63
2023/04/28 03:04:14;;;;;;;0.00;0.00;;;7.30;77.50;;;;;;4952863;29;20046;-63
2023/04/28 03:06:40;;;;;;;0.00;0.00;;;7.30;77.50;;;;;;4952818;29;20051;-63
2023/04/28 03:09:07;;;;;;;0.00;0.00;;;7.30;77.40;;;;;;4952011;29;20772;-63
2023/04/28 03:11:32;;;;;;;0.00;0.00;;;7.30;77.40;;;;;;4949615;28;20059;-63
2023/04/28 03:13:58;;;;;;;0.13;0.13;;;7.30;77.50;;;;;;4948511;29;20125;-63
2023/04/28 03:16:23;;;;;;;0.00;0.00;;;7.40;77.50;;;;;;4952115;29;20058;-63
2023/04/28 03:18:49;;;;;;;0.00;0.00;;;7.30;77.60;;;;;;4927865;29;20042;-63
2023/04/28 03:21:15;;;;;;;0.00;0.00;;;7.40;77.40;;;;;;4952458;29;20047;-63
2023/04/28 03:23:40;;;;;;;0.05;0.05;;;7.40;77.30;;;;;;4952313;29;20535;-62
2023/04/28 03:26:06;;;;;;;0.00;0.00;;;7.40;77.20;;;;;;4952400;29;20043;-63
2023/04/28 03:28:31;;;;;;;0.00;0.00;;;7.40;77.20;;;;;;4952140;29;20126;-62
2023/04/28 03:30:57;;;;;;;0.00;0.00;;;7.30;77.30;;;;;;4952138;29;20502;-63
2023/04/28 03:33:23;;;;;;;0.10;0.10;;;7.40;77.30;;;;;;4952479;29;20066;-63
2023/04/28 03:35:48;;;;;;;0.00;0.00;;;7.30;77.40;;;;;;4952050;29;20074;-63
2023/04/28 03:38:14;;;;;;;0.32;0.30;;;7.40;77.60;;;;;;4952008;29;20441;-62
2023/04/28 03:40:40;;;;;;;0.00;0.00;;;7.40;77.30;;;;;;4934406;29;20055;-63
2023/04/28 03:43:06;;;;;;;0.00;0.00;;;7.40;77.40;;;;;;4951868;29;20381;-63
2023/04/28 03:45:31;;;;;;;0.10;0.10;;;7.40;77.20;;;;;;4951556;29;20137;-62
2023/04/28 03:47:58;;;;;;;0.10;0.10;;;7.40;77.30;;;;;;4951768;29;20402;-63
2023/04/28 03:50:24;;;;;;;0.00;0.00;;;7.40;77.70;;;;;;4951503;29;20053;-62
2023/04/28 03:52:49;;;;;;;0.00;0.00;;;7.30;77.50;;;;;;4951079;29;20043;-62
2023/04/28 03:55:15;;;;;;;0.00;0.00;;;7.40;77.30;;;;;;4951810;29;20075;-63
2023/04/28 03:57:41;;;;;;;0.00;0.00;;;7.40;77.30;;;;;;4951474;29;20046;-63
2023/04/28 04:00:07;;;;;;;0.13;0.13;;;7.40;77.30;;;;;;4951489;29;20777;-64
2023/04/28 04:02:33;;;;;;;0.00;0.00;;;7.40;77.60;;;;;;4951595;29;20098;-63
2023/04/28 04:04:58;;;;;;;0.00;0.00;;;7.40;77.50;;;;;;4951836;29;20039;-63
2023/04/28 04:07:24;;;;;;;0.00;0.00;;;7.40;77.70;;;;;;4951633;29;20050;-63
2023/04/28 04:09:50;;;;;;;0.00;0.00;;;7.40;77.80;;;;;;4951180;29;20130;-63
2023/04/28 04:12:15;;;;;;;0.00;0.00;;;7.40;77.80;;;;;;4950585;29;20082;-63
2023/04/28 04:14:42;;;;;;;0.00;0.00;;;7.40;77.90;;;;;;4951250;29;20053;-64
2023/04/28 04:17:07;;;;;;;0.00;0.00;;;7.30;78.00;;;;;;4951641;29;20055;-63
2023/04/28 04:19:33;;;;;;;0.30;0.30;;;7.30;78.10;;;;;;4949880;29;20050;-63
2023/04/28 04:21:59;;;;;;;0.03;0.03;;;7.30;78.20;;;;;;4951039;29;20054;-63
2023/04/28 04:24:24;;;;;;;0.00;0.00;;;7.30;78.00;;;;;;4949898;28;20477;-64
2023/04/28 04:26:50;;;;;;;0.03;0.03;;;7.30;78.00;;;;;;4951074;29;20043;-63
2023/04/28 04:29:16;;;;;;;0.00;0.00;;;7.30;78.00;;;;;;4951164;29;20046;-63
2023/04/28 04:31:41;;;;;;;0.00;0.00;;;7.30;78.20;;;;;;4951114;29;20457;-64
2023/04/28 04:34:07;;;;;;;0.00;0.00;;;7.30;78.20;;;;;;4950875;29;20049;-63
2023/04/28 04:36:32;;;;;;;0.20;0.20;;;7.40;78.10;;;;;;4950756;29;20047;-63
2023/04/28 04:38:58;;;;;;;0.00;0.00;;;7.30;78.30;;;;;;4951092;29;20047;-63
2023/04/28 04:41:25;;;;;;;0.00;0.00;;;7.40;78.30;;;;;;4951146;29;20097;-64
2023/04/28 04:43:51;;;;;;;0.00;0.00;;;7.30;78.10;;;;;;4950424;29;20059;-63
2023/04/28 04:46:17;;;;;;;0.00;0.00;;;7.30;78.10;;;;;;4917450;29;20074;-63
2023/04/28 04:48:42;;;;;;;0.00;0.00;;;7.30;77.90;;;;;;4933432;29;20036;-63
2023/04/28 04:51:08;;;;;;;0.05;0.05;;;7.30;78.00;;;;;;4949908;29;20097;-63
2023/04/28 04:53:33;;;;;;;0.00;0.00;;;7.40;77.90;;;;;;4949722;28;20089;-63
2023/04/28 04:56:00;;;;;;;0.03;0.03;;;7.40;78.00;;;;;;4946264;28;20063;-63
2023/04/28 04:58:26;;;;;;;0.00;0.00;;;7.30;78.00;;;;;;4950115;29;20047;-63
2023/04/28 05:00:51;;;;;;;0.47;0.47;;;7.30;78.00;;;;;;4942941;29;20054;-63
2023/04/28 05:03:17;;;;;;;0.00;0.00;;;7.40;78.40;;;;;;4950039;29;20043;-63
2023/04/28 05:05:44;;;;;;;0.00;0.00;;;7.30;78.10;;;;;;4950001;29;20070;-62
2023/04/28 05:08:10;;;;;;;0.00;0.00;;;7.40;78.20;;;;;;4949853;29;20051;-62
2023/04/28 05:10:36;;;;;;;0.10;0.10;;;7.40;78.10;;;;;;4950147;29;20051;-63
2023/04/28 05:13:01;;;;;;;0.00;0.00;;;7.40;77.90;;;;;;4950055;29;20057;-63
2023/04/28 05:15:27;;;;;;;0.10;0.10;;;7.40;78.00;;;;;;4949967;29;20055;-62
2023/04/28 05:17:52;;;;;;;0.55;0.55;;;7.40;78.30;;;;;;4949393;29;20087;-62
2023/04/28 05:20:18;;;;;;;0.00;0.00;;;7.40;78.20;;;;;;4950168;29;20626;-63
2023/04/28 05:22:44;;;;;;;0.00;0.00;;;7.50;78.00;;;;;;4933121;29;20424;-63
2023/04/28 05:25:09;;;;;;;0.10;0.10;;;7.50;78.10;;;;;;4949986;29;20055;-62
2023/04/28 05:27:38;;;;;;;0.00;0.00;;;7.50;78.40;;;;;;4917506;29;20046;-62
2023/04/28 05:30:06;;;;;;;0.00;0.00;;;7.50;78.30;;;;;;4916618;29;20062;-63
2023/04/28 05:32:33;;;;;;;0.00;0.00;;;7.50;78.40;;;;;;4948862;29;20075;-63
2023/04/28 05:34:58;;;;;;;0.00;0.00;;;7.60;78.40;;;;;;4950391;28;20065;-62
2023/04/28 05:37:24;;;;;;;0.00;0.00;;;7.60;78.30;;;;;;4951327;29;20586;-62
2023/04/28 05:39:50;;;;;;;0.00;0.00;;;7.60;78.10;;;;;;4953534;29;20158;-62
2023/04/28 05:42:15;;;;;;;0.00;0.00;;;7.60;78.20;;;;;;4952149;29;20067;-63
2023/04/28 05:44:41;;;;;;;0.03;0.03;;;7.60;78.00;;;;;;4953291;28;20091;-63
2023/04/28 05:47:06;;;;;;;0.20;0.20;;;7.70;77.90;;;;;;4952996;29;20039;-62
2023/04/28 05:49:32;;;;;;;0.00;0.00;;;7.70;77.90;;;;;;4936466;28;20063;-62
2023/04/28 05:51:57;;;;;;;0.10;0.10;;;7.60;77.80;;;;;;4953868;29;20522;-63
2023/04/28 05:54:23;;;;;;;0.00;0.00;;;7.70;77.70;;;;;;4952169;29;20039;-63
2023/04/28 05:56:49;;;;;;;0.00;0.00;;;7.70;77.80;;;;;;4953302;29;20039;-62
2023/04/28 05:59:14;;;;;;;0.03;0.03;;;7.70;77.60;;;;;;4952865;29;20090;-63
2023/04/28 06:01:40;;;;;;;0.00;0.00;;;7.70;77.40;;;;;;4936084;29;20047;-62
2023/04/28 06:04:06;;;;;;;0.10;0.10;;;7.70;77.40;;;;;;4952422;29;20122;-63
2023/04/28 06:06:33;;;;;;;0.00;0.00;;;7.70;77.30;;;;;;4945240;29;20135;-62
2023/04/28 06:08:58;;;;;;;0.00;0.00;;;7.70;77.30;;;;;;4939478;29;20138;-62
2023/04/28 06:11:24;;;;;;;0.10;0.10;;;7.80;77.50;;;;;;4951440;29;20055;-61
2023/04/28 06:13:50;;;;;;;0.00;0.00;;;7.80;77.60;;;;;;4952846;29;20086;-67
2023/04/28 06:16:16;;;;;;;0.00;0.00;;;7.80;77.60;;;;;;4953015;28;20059;-62
2023/04/28 06:18:42;;;;;;;0.00;0.00;;;7.80;77.50;;;;;;4953108;29;20476;-62
2023/04/28 06:21:08;;;;;;;0.52;0.52;;;7.90;77.50;;;;;;4953219;29;20401;-62
2023/04/28 06:23:34;;;;;;;0.17;0.17;;;8.00;77.40;;;;;;4935439;29;20043;-61
2023/04/28 06:26:00;;;;;;;0.00;0.00;;;8.00;77.40;;;;;;4952278;29;20588;-61
2023/04/28 06:28:25;;;;;;;0.10;0.10;;;8.00;77.40;;;;;;4952927;29;20114;-61
2023/04/28 06:30:51;;;;;;;0.00;0.00;;;8.10;77.40;;;;;;4951475;28;20051;-61
2023/04/28 06:33:16;;;;;;;0.00;0.00;;;8.10;77.30;;;;;;4952750;29;20039;-61
2023/04/28 06:35:42;;;;;;;0.00;0.00;;;8.10;77.20;;;;;;4951182;28;20098;-61
2023/04/28 06:38:07;;;;;;;0.00;0.00;;;8.10;77.20;;;;;;4951439;29;20082;-61
2023/04/28 06:40:33;;;;;;;0.00;0.00;;;8.30;77.20;;;;;;4952288;29;20047;-61
2023/04/28 06:42:59;;;;;;;0.55;0.55;;;8.30;77.10;;;;;;4952953;29;20047;-61
2023/04/28 06:45:24;;;;;;;0.00;0.00;;;8.30;77.10;;;;;;4951667;28;20062;-61
2023/04/28 06:47:51;;;;;;;0.00;0.00;;;8.30;77.00;;;;;;4952172;29;20097;-62
2023/04/28 06:50:16;;;;;;;0.00;0.00;;;8.40;77.00;;;;;;4952386;29;20416;-62
2023/04/28 06:52:42;;;;;;;0.00;0.00;;;8.50;77.00;;;;;;4952404;29;20039;-61
2023/04/28 06:55:08;;;;;;;0.10;0.10;;;8.50;76.90;;;;;;4952320;28;20118;-61
2023/04/28 06:57:34;;;;;;;0.00;0.00;;;8.50;76.80;;;;;;4952567;29;20087;-62
2023/04/28 07:00:00;;;;;;;0.00;0.00;;;8.60;76.60;;;;;;4951625;29;20089;-61
2023/04/28 07:02:26;;;;;;;0.38;0.38;;;8.60;76.60;;;;;;4951320;29;20046;-62
2023/04/28 07:04:51;;;;;;;0.00;0.00;;;8.60;76.50;;;;;;4951754;28;20059;-61
2023/04/28 07:07:17;;;;;;;0.10;0.10;;;8.70;76.50;;;;;;4951561;29;20054;-61
2023/04/28 07:09:43;;;;;;;0.08;0.08;;;8.70;76.40;;;;;;4952111;29;20139;-62
2023/04/28 07:12:08;;;;;;;0.00;0.00;;;8.70;76.40;;;;;;4952178;29;20070;-62
2023/04/28 07:14:34;;;;;;;0.30;0.30;;;8.70;76.20;;;;;;4951565;28;20054;-62
2023/04/28 07:16:59;;;;;;;0.08;0.08;;;8.70;76.10;;;;;;4944664;29;20151;-62
2023/04/28 07:19:25;;;;;;;0.00;0.00;;;8.70;76.10;;;;;;4951724;29;20039;-61
2023/04/28 07:21:51;;;;;;;0.00;0.00;;;8.70;76.10;;;;;;4952160;29;20050;-61
2023/04/28 07:24:16;;;;;;;1.17;1.08;;;8.80;76.20;;;;;;4952339;29;20051;-62
2023/04/28 07:26:42;;;;;;;0.00;0.00;;;8.80;76.30;;;;;;4951944;29;20032;-62
2023/04/28 07:29:12;;;;;;;0.45;0.45;;;8.80;76.40;;;;;;4951269;29;20047;-63
2023/04/28 07:31:38;;;;;;;0.00;0.00;;;8.80;76.70;;;;;;4951026;29;20050;-62
2023/04/28 07:34:03;;;;;;;0.00;0.00;;;8.80;76.80;;;;;;4951421;29;20047;-62
2023/04/28 07:36:29;;;;;;;0.00;0.00;;;8.80;76.80;;;;;;4951721;29;20043;-62
2023/04/28 07:38:55;;;;;;;0.00;0.00;;;8.80;77.00;;;;;;4950934;29;20468;-61
2023/04/28 07:41:21;;;;;;;0.00;0.00;;;8.80;77.30;;;;;;4950911;29;20047;-61
2023/04/28 07:43:46;;;;;;;0.10;0.10;;;8.90;77.60;;;;;;4933758;29;20093;-61
2023/04/28 07:46:12;;;;;;;0.00;0.00;;;8.80;77.70;;;;;;4950871;29;20059;-61
2023/04/28 07:48:38;;;;;;;0.00;0.00;;;8.80;77.70;;;;;;4951158;29;20157;-61
2023/04/28 07:51:03;;;;;;;0.00;0.00;;;8.80;77.70;;;;;;4951152;29;20464;-61
2023/04/28 07:53:29;;;;;;;0.00;0.00;;;8.80;78.00;;;;;;4952181;29;20036;-62
2023/04/28 07:55:55;;;;;;;0.00;0.00;;;8.80;78.20;;;;;;4951361;29;20066;-61
2023/04/28 07:58:20;;;;;;;0.00;0.00;;;8.80;78.30;;;;;;4945423;28;20046;-62
2023/04/28 08:00:46;;;;;;;0.00;0.00;;;8.80;78.60;;;;;;4945358;28;20094;-61
2023/04/28 08:03:12;;;;;;;0.00;0.00;;;8.90;78.50;;;;;;4951616;29;20070;-62
2023/04/28 08:05:38;;;;;;;0.00;0.00;;;8.90;78.60;;;;;;4951859;29;20412;-62
2023/04/28 08:08:04;;;;;;;0.10;0.10;;;8.90;78.70;;;;;;4947735;28;20055;-62
2023/04/28 08:10:29;;;;;;;0.00;0.00;;;8.90;78.70;;;;;;4950894;29;20054;-62
2023/04/28 08:12:55;;;;;;;0.00;0.00;;;8.90;78.60;;;;;;4951031;28;20050;-62
2023/04/28 08:15:20;;;;;;;0.40;0.40;;;8.90;78.60;;;;;;4950872;29;20142;-62
2023/04/28 08:17:46;;;;;;;0.00;0.00;;;9.00;78.50;;;;;;4950887;29;20051;-62
2023/04/28 08:20:14;;;;;;;0.00;0.00;;;9.00;79.00;;;;;;4950445;29;20086;-62
2023/04/28 08:22:40;;;;;;;0.00;0.00;;;9.10;78.80;;;;;;4951222;29;20057;-62
2023/04/28 08:25:06;;;;;;;0.00;0.00;;;9.10;79.00;;;;;;4933724;29;20058;-62
2023/04/28 08:27:33;;;;;;;0.40;0.40;;;9.20;79.20;;;;;;4950574;29;20500;-61
2023/04/28 08:29:58;;;;;;;0.00;0.00;;;9.20;78.90;;;;;;4950927;28;20063;-62
2023/04/28 08:32:24;;;;;;;0.00;0.00;;;9.30;78.80;;;;;;4950236;29;20049;-61
2023/04/28 08:34:49;;;;;;;0.00;0.00;;;9.30;78.90;;;;;;4932242;29;20043;-62
2023/04/28 08:37:15;;;;;;;0.45;0.45;;;9.30;78.70;;;;;;4950458;29;20078;-62
2023/04/28 08:39:41;;;;;;;0.00;0.00;;;9.40;78.80;;;;;;4951273;29;20046;-62
2023/04/28 08:42:07;;;;;;;0.08;0.08;;;9.40;78.70;;;;;;4951362;29;20164;-62
2023/04/28 08:44:40;;;;;;;0.10;0.10;;;9.50;78.60;;;;;;4950229;28;20047;-61
2023/04/28 08:47:15;;;;;;;0.00;0.00;;;9.50;78.80;;;;;;4950783;29;20090;-61
2023/04/28 08:49:41;;;;;;;0.03;0.03;;;9.60;78.70;;;;;;4950310;29;20166;-62
2023/04/28 08:52:12;;;;;;;0.00;0.00;;;9.60;78.40;;;;;;4950294;29;20130;-62
2023/04/28 08:54:39;;;;;;;0.10;0.10;;;9.70;78.30;;;;;;4950551;29;20047;-62
2023/04/28 08:57:08;;;;;;;0.10;0.10;;;9.80;78.20;;;;;;4950806;29;20043;-62
2023/04/28 08:59:34;;;;;;;0.10;0.10;;;9.90;78.40;;;;;;4950759;29;20044;-62
2023/04/28 09:01:59;;;;;;;0.00;0.00;;;9.90;78.30;;;;;;4950141;29;20146;-62
2023/04/28 09:04:25;;;;;;;0.20;0.13;;;10.10;78.40;;;;;;4950293;29;20118;-62
2023/04/28 09:06:50;;;;;;;0.20;0.20;;;10.20;78.80;;;;;;4950666;29;20051;-63
2023/04/28 09:09:29;;;;;;;0.30;0.30;;;10.30;78.30;;;;;;4951759;28;20111;-62
2023/04/28 09:12:00;;;;;;;0.15;0.15;;;10.30;78.00;;;;;;4953910;29;20539;-62
2023/04/28 09:14:34;;;;;;;0.00;0.00;;;10.40;77.90;;;;;;4954627;29;20051;-62
2023/04/28 09:17:01;;;;;;;0.00;0.00;;;10.50;78.00;;;;;;4952800;29;20051;-62
2023/04/28 09:19:35;;;;;;;0.00;0.00;;;10.60;77.90;;;;;;4953140;29;20051;-62
2023/04/28 09:22:01;;;;;;;0.00;0.00;;;10.60;78.00;;;;;;4954194;29;20063;-62
2023/04/28 09:24:32;;;;;;;0.00;0.00;;;10.60;77.90;;;;;;4952858;29;20043;-62
2023/04/28 09:27:02;;;;;;;0.00;0.00;;;10.70;77.50;;;;;;4954038;29;20039;-62
2023/04/28 09:29:28;;;;;;;0.00;0.00;;;10.70;77.50;;;;;;4953534;29;20035;-63
2023/04/28 09:32:14;;;;;;;0.20;0.20;;;10.80;77.60;;;;;;4953723;29;20074;-63
2023/04/28 09:34:45;;;;;;;0.40;0.40;;;11.00;77.60;;;;;;4953468;29;20519;-63
2023/04/28 09:37:15;;;;;;;0.00;0.00;;;11.00;77.20;;;;;;4954088;29;20043;-62
2023/04/28 09:39:42;;;;;;;0.00;0.00;;;11.10;77.00;;;;;;4953854;29;20051;-62
2023/04/28 09:42:07;;;;;;;0.08;0.08;;;11.10;77.00;;;;;;4953959;29;20055;-62
2023/04/28 09:44:33;;;;;;;0.77;0.77;;;11.30;77.00;;;;;;4936502;29;20057;-63
2023/04/28 09:47:00;;;;;;;0.63;0.43;;;11.40;77.30;;;;;;4954173;29;20059;-62
2023/04/28 09:49:25;;;;;;;0.30;0.30;;;11.50;77.30;;;;;;4952916;29;20925;-62
2023/04/28 09:51:51;;;;;;;0.00;0.00;;;11.60;77.30;;;;;;4952808;29;20053;-66
2023/04/28 09:54:20;;;;;;;0.00;0.00;;;12.00;78.10;;;;;;4953365;29;20055;-62
2023/04/28 09:56:46;;;;;;;0.00;0.00;;;12.40;77.20;;;;;;4953727;29;20055;-63
2023/04/28 09:59:13;;;;;;;0.00;0.00;;;12.50;76.40;;;;;;4940224;29;20044;-62
2023/04/28 10:01:40;;;;;;;0.00;0.00;;;12.40;75.80;;;;;;4946893;29;20059;-62
2023/04/28 10:04:06;;;;;;;0.00;0.00;;;12.40;75.70;;;;;;4952967;29;20070;-62
2023/04/28 10:06:35;;;;;;;0.00;0.00;;;12.30;75.70;;;;;;4953327;29;20067;-62
2023/04/28 10:09:01;;;;;;;0.00;0.00;;;12.30;75.90;;;;;;4952663;29;20053;-62
2023/04/28 10:11:28;;;;;;;0.00;0.00;;;12.20;75.90;;;;;;4952433;28;20138;-62
2023/04/28 10:13:53;;;;;;;1.35;0.43;;;12.20;76.00;;;;;;4952968;29;20062;-62
2023/04/28 10:16:19;;;;;;;0.00;0.00;;;12.20;76.00;;;;;;4953843;29;20039;-62
2023/04/28 10:18:45;;;;;;;0.13;0.13;;;12.20;76.00;;;;;;4953738;29;20515;-61
2023/04/28 10:21:13;;;;;;;0.00;0.00;;;12.20;76.10;;;;;;4951476;28;20814;-62
2023/04/28 10:23:53;;;;;;;4.13;1.25;;;12.20;76.10;;;;;;4953090;29;20126;-61
2023/04/28 10:26:20;;;;;;;0.00;0.00;;;12.20;76.20;;;;;;4953634;29;20043;-62
2023/04/28 10:28:47;;;;;;;0.00;0.00;;;12.10;76.20;;;;;;4951170;28;20039;-62
2023/04/28 10:31:15;;;;;;;0.20;0.20;;;12.20;76.10;;;;;;4951290;29;20054;-62
2023/04/28 10:33:41;;;;;;;0.00;0.00;;;12.20;76.50;;;;;;4953044;29;20071;-61
2023/04/28 10:36:07;;;;;;;0.30;0.30;;;12.20;76.60;;;;;;4952086;29;20145;-62
2023/04/28 10:38:34;;;;;;;0.20;0.20;;;12.20;76.80;;;;;;4952971;29;20563;-61
2023/04/28 10:41:03;;;;;;;0.00;0.00;;;12.30;76.80;;;;;;4942759;29;20142;-62
2023/04/28 10:43:31;;;;;;;0.00;0.00;;;12.40;76.80;;;;;;4952789;29;20062;-62
2023/04/28 10:46:00;;;;;;;0.00;0.00;;;12.50;76.70;;;;;;4951515;29;20051;-61
2023/04/28 10:48:25;;;;;;;0.10;0.10;;;12.50;76.80;;;;;;4946683;28;20052;-62
2023/04/28 10:53:50;;;;;;;0.00;0.00;;;12.60;76.50;;;;;;4952330;29;20047;-62
2023/04/28 10:56:26;;;;;;;0.05;0.05;;;12.70;76.40;;;;;;4938812;29;20047;-61
2023/04/28 10:58:53;;;;;;;0.00;0.00;;;12.70;76.50;;;;;;4951804;29;20054;-62
2023/04/28 11:01:24;;;;;;;0.10;0.10;;;12.80;76.50;;;;;;4950964;29;20055;-62
2023/04/28 11:04:12;;;;;;;0.98;0.50;;;12.90;76.70;;;;;;4947831;29;20050;-61
2023/04/28 11:06:42;;;;;;;0.10;0.10;;;13.10;76.50;;;;;;4950889;29;20039;-62
2023/04/28 11:09:13;;;;;;;0.05;0.05;;;13.20;76.40;;;;;;4943342;29;20039;-61
2023/04/28 11:11:58;;;;;;;0.40;0.40;;;13.30;76.40;;;;;;4951651;29;20082;-61
2023/04/28 11:14:34;;;;;;;0.00;0.00;;;13.20;76.30;;;;;;4949781;28;20104;-61
2023/04/28 11:17:02;;;;;;;0.00;0.00;;;13.20;76.30;;;;;;4941583;29;20067;-62
2023/04/28 11:19:33;;;;;;;0.00;0.00;;;13.10;76.30;;;;;;4951948;29;20040;-62
2023/04/28 11:22:10;;;;;;;0.00;0.00;;;13.10;76.50;;;;;;4952190;29;20047;-61
2023/04/28 11:24:36;;;;;;;0.00;0.00;;;13.00;76.70;;;;;;4951993;29;20500;-61
2023/04/28 11:27:02;;;;;;;0.00;0.00;;;13.00;76.80;;;;;;4952360;29;20039;-61
2023/04/28 11:29:38;;;;;;;0.00;0.00;;;13.00;77.30;;;;;;4951519;29;20055;-61
2023/04/28 11:32:05;;;;;;;0.00;0.00;;;12.90;77.30;;;;;;4951894;28;20043;-61
2023/04/28 11:34:31;;;;;;;0.00;0.00;;;12.90;77.30;;;;;;4952085;29;20071;-61
2023/04/28 11:36:57;;;;;;;0.00;0.00;;;12.90;77.60;;;;;;4952097;29;20050;-62
2023/04/28 11:39:28;;;;;;;0.00;0.00;;;12.90;77.80;;;;;;4952187;29;20039;-62
2023/04/28 11:41:54;;;;;;;0.00;0.00;;;12.90;78.00;;;;;;4940704;29;20039;-63
2023/04/28 11:44:22;;;;;;;0.00;0.00;;;12.90;78.20;;;;;;4951159;29;20047;-62
2023/04/28 11:46:59;;;;;;;0.00;0.00;;;12.90;78.50;;;;;;4946039;28;20051;-61
2023/04/28 11:49:29;;;;;;;0.00;0.00;;;13.00;78.60;;;;;;4932543;29;20043;-62
2023/04/28 11:51:58;;;;;;;0.00;0.00;;;12.90;79.10;;;;;;4932682;29;20159;-62
2023/04/28 11:54:26;;;;;;;0.00;0.00;;;12.90;79.40;;;;;;4933178;29;20099;-62
2023/04/28 11:56:53;;;;;;;0.28;0.28;;;12.90;79.40;;;;;;4932721;29;20154;-61
2023/04/28 11:59:25;;;;;;;0.00;0.00;;;12.90;79.40;;;;;;4936032;29;20523;-62
2023/04/28 12:01:58;;;;;;;0.00;0.00;;;13.00;79.20;;;;;;4948685;29;20134;-62
2023/04/28 12:04:36;;;;;;;0.00;0.00;;;13.10;79.80;;;;;;4952280;29;20051;-62
2023/04/28 12:07:12;;;;;;;0.00;0.00;;;13.10;79.40;;;;;;4951761;29;20126;-63
2023/04/28 12:09:40;;;;;;;0.00;0.00;;;13.00;79.70;;;;;;4951135;29;20051;-61
2023/04/28 12:12:27;;;;;;;0.00;0.00;;;12.90;79.60;;;;;;4951440;28;20043;-62
2023/04/28 12:15:01;;;;;;;0.00;0.00;;;12.90;79.70;;;;;;4951504;29;20059;-62
2023/04/28 12:17:31;;;;;;;0.00;0.00;;;12.90;79.70;;;;;;4951730;29;20106;-63
2023/04/28 12:20:00;;;;;;;0.00;0.00;;;12.80;80.90;;;;;;4951051;29;20050;-62
2023/04/28 12:22:26;;;;;;;0.05;0.05;;;12.80;81.00;;;;;;4951495;29;20074;-61
2023/04/28 12:25:09;;;;;;;0.00;0.00;;;12.80;82.50;;;;;;4951412;29;20051;-62
2023/04/28 12:27:39;;;;;;;0.00;0.00;;;12.70;82.00;;;;;;4951261;29;20043;-62
2023/04/28 12:30:29;;;;;;;0.00;0.00;;;12.80;82.70;;;;;;4951428;29;20500;-62
2023/04/28 12:32:54;;;;;;;0.00;0.00;;;12.80;82.80;;;;;;4915071;29;20047;-62
2023/04/28 12:35:22;;;;;;;0.03;0.03;;;12.80;82.40;;;;;;4935497;29;20043;-62
2023/04/28 12:37:47;;;;;;;0.00;0.00;;;12.80;82.40;;;;;;4951117;29;20081;-62
2023/04/28 12:40:13;;;;;;;0.10;0.10;;;12.80;83.30;;;;;;4950938;29;20516;-61
2023/04/28 12:42:39;;;;;;;0.00;0.00;;;12.80;83.60;;;;;;4934665;29;20047;-61
2023/04/28 12:45:06;;;;;;;0.00;0.00;;;12.70;83.40;;;;;;4931117;29;20036;-62
2023/04/28 12:47:32;;;;;;;0.00;0.00;;;12.70;84.00;;;;;;4950785;29;20604;-62
2023/04/28 12:49:57;;;;;;;0.00;0.00;;;12.80;84.20;;;;;;4950338;29;20122;-61
2023/04/28 12:52:23;;;;;;;0.00;0.00;;;12.70;84.10;;;;;;4950337;29;20039;-62
2023/04/28 12:54:49;;;;;;;0.00;0.00;;;12.70;84.10;;;;;;4949930;29;20082;-61